createdAt,value
2022-11-16T00:18:40.904Z,100138.46
2022-11-16T00:48:43.869Z,100135.98
2022-11-16T01:18:47.280Z,100114.39
2022-11-16T01:48:50.274Z,100107.31
2022-11-16T02:18:54.058Z,100086.54
2022-11-16T02:48:56.996Z,100068.45
2022-11-16T03:19:01.097Z,100076.46
2022-11-16T03:49:04.183Z,100055.20
2022-11-16T04:19:08.015Z,100035.42
2022-11-16T04:49:10.857Z,99989.59
2022-11-16T05:19:14.715Z,99960.97
2022-11-16T05:49:17.675Z,99970.39
2022-11-16T06:19:21.909Z,99967.71
2022-11-16T06:49:24.782Z,99978.80
2022-11-16T07:19:29.351Z,99979.47
2022-11-16T07:49:32.374Z,99995.74
2022-11-16T08:19:36.945Z,99983.31
2022-11-16T08:49:42.918Z,99991.54
2022-11-16T09:19:49.168Z,99991.65
2022-11-16T09:49:52.041Z,99993.41
2022-11-16T10:19:56.010Z,99967.31
2022-11-16T10:49:58.876Z,99959.22
2022-11-16T11:20:03.164Z,99942.89
2022-11-16T11:50:06.122Z,99937.16
2022-11-16T12:20:10.240Z,99923.31
2022-11-16T12:50:13.190Z,99905.27
2022-11-16T13:20:16.892Z,99880.39
2022-11-16T13:50:20.176Z,99885.66
2022-11-16T14:20:24.940Z,99904.06
2022-11-16T14:50:28.846Z,99888.90
2022-11-16T15:20:32.325Z,99880.49
2022-11-16T15:50:35.716Z,99883.31
2022-11-16T16:20:38.945Z,99884.70
2022-11-16T16:50:42.652Z,99900.45
2022-11-16T17:20:45.733Z,99908.45
2022-11-16T17:50:49.343Z,99925.16
2022-11-16T18:20:52.990Z,99919.44
2022-11-16T18:50:56.879Z,99939.50
2022-11-16T19:21:00.505Z,99957.18
2022-11-16T19:51:04.348Z,99948.86
2022-11-16T20:21:08.907Z,99956.77
2022-11-16T20:51:13.641Z,99950.84
2022-11-16T21:21:17.754Z,99962.91
2022-11-16T21:51:21.054Z,99962.91
2022-11-16T22:21:24.809Z,99969.77
2022-11-16T22:51:28.320Z,99955.97
2022-11-16T23:21:31.925Z,99942.13
2022-11-16T23:51:34.759Z,99927.42
